MSC Karlskrona — CQHV — position and weather

sailwx.info

Track history (hours):
 
Tides and Currents Weather Stations Pressure Air Temp Water Temp Dewpoint Dewpoint Depression Visibility Wind Speed Wind Dir Waves Ship Positions

MSC Karlskrona

Last reported at 2017-Nov-16 09:46 UTC. Time now 2017-Nov-24 07:14 UTC.
Position N 32°37' W 079°09'.

Length 318 m; draft 12 m.

Type: Ship (hazmat cat A). MMSI: 255805597.

Date/timePositionNaut miles runAvg speedWind from/ knotsBaromVisibWave heightAir tempDewpointWater temp
2017-Nov-16 09:46N 32°37' W 079°09'1217.3
2017-Nov-16 09:06N 32°37' W 079°23'110.7
2017-Nov-16 09:00N 32°37' W 079°24'5 9.3
2017-Nov-16 08:30N 32°37' W 079°30'5 9.5
2017-Nov-16 08:01N 32°37' W 079°35'611.5
2017-Nov-16 07:31N 32°40' W 079°41'815.5
2017-Nov-16 07:00N 32°44' W 079°49'611.9
2017-Nov-16 06:30N 32°47' W 079°55'3 6.2
2017-Nov-16 06:00N 32°50' W 079°54'0 0.1
2017-Nov-16 05:30N 32°50' W 079°54'0 0.0
2017-Nov-16 05:00N 32°50' W 079°54'0 0.0
2017-Nov-16 04:30N 32°50' W 079°54'0 0.0
2017-Nov-16 03:59N 32°50' W 079°54'0 0.0
2017-Nov-16 03:28N 32°50' W 079°54'0 0.0
2017-Nov-16 03:00N 32°50' W 079°54'0 0.0
2017-Nov-16 02:30N 32°50' W 079°54'0 0.0
2017-Nov-16 02:00N 32°50' W 079°54'0 0.0
2017-Nov-16 01:30N 32°50' W 079°54'0 0.0
2017-Nov-16 01:00N 32°50' W 079°54'0 0.0
2017-Nov-15 20:49N 32°50' W 079°54'0 0.0
2017-Nov-15 20:27N 32°50' W 079°54'0 0.0
2017-Nov-15 20:00N 32°50' W 079°54'0 0.0
2017-Nov-15 19:29N 32°50' W 079°54'0 0.0
2017-Nov-15 19:00N 32°50' W 079°54'0 0.0
2017-Nov-15 18:29N 32°50' W 079°54'0 0.0
2017-Nov-15 17:59N 32°50' W 079°54'0 0.0
2017-Nov-15 17:29N 32°50' W 079°54'0 0.0
2017-Nov-15 16:59N 32°50' W 079°54'0 0.0
2017-Nov-15 16:29N 32°50' W 079°54'0 0.0
2017-Nov-15 15:59N 32°50' W 079°54'0 0.0
2017-Nov-15 14:19N 32°50' W 079°54'0 0.1
2017-Nov-15 14:00N 32°50' W 079°54'3 5.4
2017-Nov-15 13:30N 32°48' W 079°55'611.0
2017-Nov-15 13:00N 32°44' W 079°50'815.6
2017-Nov-15 12:30N 32°40' W 079°42'4 7.2
2017-Nov-15 12:00N 32°37' W 079°41'4 8.8
2017-Nov-15 11:30N 32°32' W 079°41'4 8.9
2017-Nov-15 11:00N 32°28' W 079°43'5 9.7
2017-Nov-15 10:30N 32°25' W 079°48'5 9.8
2017-Nov-15 10:00N 32°23' W 079°53'5 9.8
2017-Nov-15 09:30N 32°20' W 079°57'5 9.8
2017-Nov-15 08:59N 32°17' W 080°02'21 9.8
2017-Nov-15 06:52N 32°05' W 080°22'4 9.7
2017-Nov-15 06:29N 32°03' W 080°25'5 9.7
2017-Nov-15 06:00N 31°60' W 080°30'5 9.5
2017-Nov-15 05:30N 31°57' W 080°35'4 8.4
2017-Nov-15 05:00N 31°56' W 080°39'4 9.0
2017-Nov-15 04:30N 31°58' W 080°44'714.5
2017-Nov-15 04:00N 32°02' W 080°51'611.5
2017-Nov-15 03:30N 32°04' W 080°58'5 9.3
2017-Nov-15 03:00N 32°05' W 081°03'3 6.1
2017-Nov-15 02:30N 32°06' W 081°07'2 2.4
2017-Nov-15 01:42N 32°07' W 081°08'0 0.0
2017-Nov-15 01:24N 32°07' W 081°08'0 0.0
2017-Nov-15 01:00N 32°07' W 081°08'0 0.0
2017-Nov-15 00:30N 32°07' W 081°08'0 0.0
2017-Nov-15 00:00N 32°07' W 081°08'0 0.0
2017-Nov-14 23:30N 32°07' W 081°08'0 0.0
2017-Nov-14 23:00N 32°07' W 081°08'0 0.0
2017-Nov-14 22:24N 32°07' W 081°08'0 0.0
2017-Nov-14 22:00N 32°07' W 081°08'0 0.0
2017-Nov-14 21:30N 32°07' W 081°08'0 0.0
2017-Nov-14 20:54N 32°07' W 081°08'0 0.0
2017-Nov-14 20:30N 32°07' W 081°08'0 0.0
2017-Nov-14 20:00N 32°07' W 081°08'0 0.0
2017-Nov-14 19:30N 32°07' W 081°08'0 0.0
2017-Nov-14 19:00N 32°07' W 081°08'0 0.0
2017-Nov-14 18:30N 32°07' W 081°08'0 0.0
2017-Nov-14 18:00N 32°07' W 081°08'0 0.0
2017-Nov-14 17:30N 32°07' W 081°08'0 0.0
2017-Nov-14 17:00N 32°07' W 081°08'0 0.0
2017-Nov-14 16:24N 32°07' W 081°08'0 0.0
2017-Nov-14 16:00N 32°07' W 081°08'0 0.0
2017-Nov-14 15:30N 32°07' W 081°08'0 0.0
2017-Nov-14 15:00N 32°07' W 081°08'0 0.0
2017-Nov-14 14:30N 32°07' W 081°08'0 0.0
2017-Nov-14 14:00N 32°07' W 081°08'0 0.0
2017-Nov-14 13:30N 32°07' W 081°08'0 0.0
2017-Nov-14 12:48N 32°07' W 081°08'0 0.0
2017-Nov-14 12:30N 32°07' W 081°08'0 0.0
2017-Nov-14 11:36N 32°07' W 081°08'0 0.0
2017-Nov-14 11:30N 32°07' W 081°08'0 0.0
2017-Nov-14 11:00N 32°07' W 081°08'0 0.0
2017-Nov-14 10:30N 32°07' W 081°08'0 0.1
2017-Nov-14 10:00N 32°07' W 081°08'0 0.5
2017-Nov-14 09:30N 32°08' W 081°08'3 5.7
2017-Nov-14 09:00N 32°05' W 081°06'3 6.0
2017-Nov-14 08:30N 32°05' W 081°03'5 9.4
2017-Nov-14 08:00N 32°04' W 080°57'713.1
2017-Nov-14 07:30N 32°02' W 080°50'815.6
2017-Nov-14 07:00N 31°58' W 080°42'3 6.9
2017-Nov-14 06:30N 31°56' W 080°39'3 5.9
2017-Nov-14 06:00N 31°54' W 080°36'4 8.1
2017-Nov-14 05:30N 31°50' W 080°35'4 8.1
2017-Nov-14 05:00N 31°46' W 080°33'4 7.9
2017-Nov-14 04:30N 31°43' W 080°32'  
2017-Nov-11 06:27N 25°56' W 079°19'919.8
2017-Nov-11 06:00N 25°48' W 079°23'1020.0
2017-Nov-11 05:30N 25°39' W 079°27'1120.6
2017-Nov-11 04:59N 25°29' W 079°31'3220.7
2017-Nov-11 03:26N 24°59' W 079°43'920.8
2017-Nov-11 03:00N 24°50' W 079°47'1019.6
2017-Nov-11 02:29N 24°42' W 079°52'1020.6
2017-Nov-11 01:59N 24°36' W 080°02'1020.7
2017-Nov-11 01:29N 24°30' W 080°11'  
Track history (hours):
 
Tides and Currents Weather Stations Pressure Air Temp Water Temp Dewpoint Dewpoint Depression Visibility Wind Speed Wind Dir Waves Ship Positions

MSC Karlskrona

Last reported at 2017-Nov-16 09:46 UTC. Time now 2017-Nov-24 07:14 UTC.
Position N 32°37' W 079°09'.

Length 318 m; draft 12 m.

Type: Ship (hazmat cat A). MMSI: 255805597.

Date/timePositionNaut miles runAvg speedWind from/ knotsBaromVisibWave heightAir tempDewpointWater temp
2017-Nov-16 09:46N 32°37' W 079°09'1217.3
2017-Nov-16 09:06N 32°37' W 079°23'110.7
2017-Nov-16 09:00N 32°37' W 079°24'5 9.3
2017-Nov-16 08:30N 32°37' W 079°30'5 9.5
2017-Nov-16 08:01N 32°37' W 079°35'611.5
2017-Nov-16 07:31N 32°40' W 079°41'815.5
2017-Nov-16 07:00N 32°44' W 079°49'611.9
2017-Nov-16 06:30N 32°47' W 079°55'3 6.2
2017-Nov-16 06:00N 32°50' W 079°54'0 0.1
2017-Nov-16 05:30N 32°50' W 079°54'0 0.0
2017-Nov-16 05:00N 32°50' W 079°54'0 0.0
2017-Nov-16 04:30N 32°50' W 079°54'0 0.0
2017-Nov-16 03:59N 32°50' W 079°54'0 0.0
2017-Nov-16 03:28N 32°50' W 079°54'0 0.0
2017-Nov-16 03:00N 32°50' W 079°54'0 0.0
2017-Nov-16 02:30N 32°50' W 079°54'0 0.0
2017-Nov-16 02:00N 32°50' W 079°54'0 0.0
2017-Nov-16 01:30N 32°50' W 079°54'0 0.0
2017-Nov-16 01:00N 32°50' W 079°54'0 0.0
2017-Nov-15 20:49N 32°50' W 079°54'0 0.0
2017-Nov-15 20:27N 32°50' W 079°54'0 0.0
2017-Nov-15 20:00N 32°50' W 079°54'0 0.0
2017-Nov-15 19:29N 32°50' W 079°54'0 0.0
2017-Nov-15 19:00N 32°50' W 079°54'0 0.0
2017-Nov-15 18:29N 32°50' W 079°54'0 0.0
2017-Nov-15 17:59N 32°50' W 079°54'0 0.0
2017-Nov-15 17:29N 32°50' W 079°54'0 0.0
2017-Nov-15 16:59N 32°50' W 079°54'0 0.0
2017-Nov-15 16:29N 32°50' W 079°54'0 0.0
2017-Nov-15 15:59N 32°50' W 079°54'0 0.0
2017-Nov-15 14:19N 32°50' W 079°54'0 0.1
2017-Nov-15 14:00N 32°50' W 079°54'3 5.4
2017-Nov-15 13:30N 32°48' W 079°55'611.0
2017-Nov-15 13:00N 32°44' W 079°50'815.6
2017-Nov-15 12:30N 32°40' W 079°42'4 7.2
2017-Nov-15 12:00N 32°37' W 079°41'4 8.8
2017-Nov-15 11:30N 32°32' W 079°41'4 8.9
2017-Nov-15 11:00N 32°28' W 079°43'5 9.7
2017-Nov-15 10:30N 32°25' W 079°48'5 9.8
2017-Nov-15 10:00N 32°23' W 079°53'5 9.8
2017-Nov-15 09:30N 32°20' W 079°57'5 9.8
2017-Nov-15 08:59N 32°17' W 080°02'21 9.8
2017-Nov-15 06:52N 32°05' W 080°22'4 9.7
2017-Nov-15 06:29N 32°03' W 080°25'5 9.7
2017-Nov-15 06:00N 31°60' W 080°30'5 9.5
2017-Nov-15 05:30N 31°57' W 080°35'4 8.4
2017-Nov-15 05:00N 31°56' W 080°39'4 9.0
2017-Nov-15 04:30N 31°58' W 080°44'714.5
2017-Nov-15 04:00N 32°02' W 080°51'611.5
2017-Nov-15 03:30N 32°04' W 080°58'5 9.3
2017-Nov-15 03:00N 32°05' W 081°03'3 6.1
2017-Nov-15 02:30N 32°06' W 081°07'2 2.4
2017-Nov-15 01:42N 32°07' W 081°08'0 0.0
2017-Nov-15 01:24N 32°07' W 081°08'0 0.0
2017-Nov-15 01:00N 32°07' W 081°08'0 0.0
2017-Nov-15 00:30N 32°07' W 081°08'0 0.0
2017-Nov-15 00:00N 32°07' W 081°08'0 0.0
2017-Nov-14 23:30N 32°07' W 081°08'0 0.0
2017-Nov-14 23:00N 32°07' W 081°08'0 0.0
2017-Nov-14 22:24N 32°07' W 081°08'0 0.0
2017-Nov-14 22:00N 32°07' W 081°08'0 0.0
2017-Nov-14 21:30N 32°07' W 081°08'0 0.0
2017-Nov-14 20:54N 32°07' W 081°08'0 0.0
2017-Nov-14 20:30N 32°07' W 081°08'0 0.0
2017-Nov-14 20:00N 32°07' W 081°08'0 0.0
2017-Nov-14 19:30N 32°07' W 081°08'0 0.0
2017-Nov-14 19:00N 32°07' W 081°08'0 0.0
2017-Nov-14 18:30N 32°07' W 081°08'0 0.0
2017-Nov-14 18:00N 32°07' W 081°08'0 0.0
2017-Nov-14 17:30N 32°07' W 081°08'0 0.0
2017-Nov-14 17:00N 32°07' W 081°08'0 0.0
2017-Nov-14 16:24N 32°07' W 081°08'0 0.0
2017-Nov-14 16:00N 32°07' W 081°08'0 0.0
2017-Nov-14 15:30N 32°07' W 081°08'0 0.0
2017-Nov-14 15:00N 32°07' W 081°08'0 0.0
2017-Nov-14 14:30N 32°07' W 081°08'0 0.0
2017-Nov-14 14:00N 32°07' W 081°08'0 0.0
2017-Nov-14 13:30N 32°07' W 081°08'0 0.0
2017-Nov-14 12:48N 32°07' W 081°08'0 0.0
2017-Nov-14 12:30N 32°07' W 081°08'0 0.0
2017-Nov-14 11:36N 32°07' W 081°08'0 0.0
2017-Nov-14 11:30N 32°07' W 081°08'0 0.0
2017-Nov-14 11:00N 32°07' W 081°08'0 0.0
2017-Nov-14 10:30N 32°07' W 081°08'0 0.1
2017-Nov-14 10:00N 32°07' W 081°08'0 0.5
2017-Nov-14 09:30N 32°08' W 081°08'3 5.7
2017-Nov-14 09:00N 32°05' W 081°06'3 6.0
2017-Nov-14 08:30N 32°05' W 081°03'5 9.4
2017-Nov-14 08:00N 32°04' W 080°57'713.1
2017-Nov-14 07:30N 32°02' W 080°50'815.6
2017-Nov-14 07:00N 31°58' W 080°42'3 6.9
2017-Nov-14 06:30N 31°56' W 080°39'3 5.9
2017-Nov-14 06:00N 31°54' W 080°36'4 8.1
2017-Nov-14 05:30N 31°50' W 080°35'4 8.1
2017-Nov-14 05:00N 31°46' W 080°33'4 7.9
2017-Nov-14 04:30N 31°43' W 080°32'  
2017-Nov-11 06:27N 25°56' W 079°19'919.8
2017-Nov-11 06:00N 25°48' W 079°23'1020.0
2017-Nov-11 05:30N 25°39' W 079°27'1120.6
2017-Nov-11 04:59N 25°29' W 079°31'3220.7
2017-Nov-11 03:26N 24°59' W 079°43'920.8
2017-Nov-11 03:00N 24°50' W 079°47'1019.6
2017-Nov-11 02:29N 24°42' W 079°52'1020.6
2017-Nov-11 01:59N 24°36' W 080°02'1020.7
2017-Nov-11 01:29N 24°30' W 080°11'  

Dump ship's entire track history